Terminal Aerodrome Forecast
Issued by NWS Corpus Christi, TX

Home | Current Version | Previous Version | Text Only | Print | Product List | Glossary On
Versions: 1 2 3 4 5 6 7 8 9 10 11 12 13 14 15 16 17 18
000
FTUS44 KCRP 220500
TAFCRP
TAF
KCRP 220531Z 2206/2306 16004KT P6SM SCT007 OVC015
     FM220800 17004KT 4SM BR OVC007
     FM221000 VRB03KT 1SM BR OVC003
     FM221500 20008KT 2SM BR BKN008
     FM221600 20011KT P6SM SCT015
     FM221800 21013KT P6SM SKC
     FM230100 18007KT P6SM BKN250=

USA.gov is the U.S. government's official web portal to all federal, state and local government web resources and services.